createdAt,value
2022-07-25T00:00:08.937Z,62405.22
2022-07-25T00:01:15.073Z,62290.72
2022-07-25T00:02:18.459Z,62188.27
2022-07-25T00:03:33.851Z,62512.70
2022-07-25T00:04:37.328Z,62424.31
2022-07-25T00:05:40.311Z,62444.39
2022-07-25T00:06:55.386Z,62357.01
2022-07-25T00:07:58.244Z,62461.47
2022-07-25T00:09:16.382Z,62405.22
2022-07-25T00:10:22.222Z,62426.32
2022-07-25T00:11:27.754Z,62418.28
2022-07-25T00:12:33.196Z,62474.53
2022-07-25T00:13:36.172Z,62466.49
2022-07-25T00:14:39.148Z,62365.05
2022-07-25T00:15:42.509Z,62362.04
2022-07-25T00:16:57.386Z,62433.35
2022-07-25T00:18:00.570Z,62363.04
2022-07-25T00:19:03.557Z,62444.39
2022-07-25T00:21:31.619Z,62575.98
2022-07-25T00:22:37.359Z,62533.79
2022-07-25T00:23:40.145Z,62540.82
2022-07-25T00:24:43.126Z,62502.65
2022-07-25T00:25:48.983Z,62541.83
2022-07-25T00:26:51.950Z,62433.35
2022-07-25T00:27:54.812Z,62409.24
2022-07-25T00:28:57.477Z,62441.38
2022-07-25T00:30:00.295Z,62434.35
2022-07-25T00:31:02.971Z,62303.78
2022-07-25T00:32:08.866Z,62358.02
2022-07-25T00:33:11.845Z,62443.39
2022-07-25T00:34:14.515Z,62360.02
2022-07-25T00:35:20.563Z,62279.67
2022-07-25T00:36:23.533Z,62316.84
2022-07-25T00:37:26.422Z,62247.53
2022-07-25T00:38:29.297Z,62303.78
2022-07-25T00:39:31.968Z,62424.31
2022-07-25T00:40:36.469Z,62365.05
2022-07-25T00:41:39.652Z,62467.50
2022-07-25T00:42:42.424Z,62524.75
2022-07-25T00:43:45.094Z,62470.51
2022-07-25T00:44:50.425Z,62427.32
2022-07-25T00:45:53.403Z,62420.29
2022-07-25T00:46:56.609Z,62372.08
2022-07-25T00:47:59.569Z,62382.12
2022-07-25T00:49:02.561Z,62335.92
2022-07-25T00:50:05.413Z,62248.54
2022-07-25T00:51:08.407Z,62152.12
2022-07-25T00:52:11.276Z,62299.76
2022-07-25T00:53:16.801Z,62377.10
2022-07-25T00:54:19.471Z,62403.21
2022-07-25T00:55:22.455Z,62172.20
2022-07-25T00:56:25.324Z,62243.52
2022-07-25T00:57:31.274Z,62227.45
2022-07-25T00:58:33.941Z,62321.86
2022-07-25T00:59:36.917Z,62401.21
2022-07-25T01:00:42.449Z,62362.04
2022-07-25T01:01:45.490Z,62451.43
2022-07-25T01:02:48.503Z,62444.39
2022-07-25T01:03:52.935Z,62489.59
2022-07-25T01:04:55.898Z,62646.29
2022-07-25T01:05:58.874Z,62738.70
2022-07-25T01:07:01.869Z,62768.84
2022-07-25T01:08:05.135Z,62791.95
2022-07-25T01:09:08.218Z,62732.68
2022-07-25T01:10:10.988Z,62687.48
2022-07-25T01:11:13.964Z,62685.46
2022-07-25T01:12:16.835Z,62757.79
2022-07-25T01:13:20.831Z,62607.12
2022-07-25T01:14:23.715Z,62522.74
2022-07-25T01:15:26.816Z,62463.48
2022-07-25T01:16:29.682Z,62387.14
2022-07-25T01:17:32.543Z,62285.70
2022-07-25T01:18:36.443Z,62363.04
2022-07-25T01:19:39.318Z,62302.77
2022-07-25T01:20:44.956Z,62293.73
2022-07-25T01:21:47.628Z,62313.82
2022-07-25T01:22:50.601Z,62319.85
2022-07-25T01:23:53.580Z,62349.98
2022-07-25T01:24:56.453Z,62358.02
2022-07-25T01:25:59.437Z,62296.75
2022-07-25T01:27:03.338Z,62497.63
2022-07-25T01:28:06.203Z,62529.77
2022-07-25T01:29:09.489Z,62430.33
2022-07-25T01:30:12.463Z,62426.32
2022-07-25T01:31:15.532Z,62409.24
2022-07-25T01:32:21.488Z,62345.96
2022-07-25T01:33:30.103Z,62261.59
2022-07-25T01:34:32.989Z,62240.50
2022-07-25T01:35:40.163Z,62226.44
2022-07-25T01:36:40.469Z,62218.41
2022-07-25T01:37:45.391Z,62205.35
2022-07-25T01:38:47.859Z,62265.61
2022-07-25T01:39:50.729Z,62278.67
2022-07-25T01:40:53.705Z,62274.65
2022-07-25T01:41:56.788Z,62293.73
2022-07-25T01:42:59.771Z,62420.29
2022-07-25T01:44:02.931Z,62499.64
2022-07-25T01:45:06.030Z,62664.37
2022-07-25T01:46:08.826Z,62597.07
2022-07-25T01:47:11.673Z,62638.25
2022-07-25T01:48:14.555Z,62681.45
2022-07-25T01:49:17.369Z,62699.53
2022-07-25T01:50:20.195Z,62678.43
2022-07-25T01:51:23.089Z,62706.56
2022-07-25T01:52:27.394Z,62679.44
2022-07-25T01:53:30.150Z,62709.57
2022-07-25T01:54:33.435Z,62732.68
2022-07-25T01:55:36.616Z,62845.18
2022-07-25T01:56:42.457Z,62873.31
2022-07-25T01:57:49.710Z,62867.28
2022-07-25T01:58:52.925Z,62904.45
2022-07-25T01:59:55.895Z,62951.66
2022-07-25T02:00:59.018Z,62933.58
2022-07-25T02:02:02.096Z,63008.92
2022-07-25T02:03:05.031Z,63043.08
2022-07-25T02:04:08.522Z,62936.59
2022-07-25T02:05:12.096Z,62919.52
2022-07-25T02:06:15.203Z,62906.46
2022-07-25T02:07:18.070Z,62896.41
2022-07-25T02:08:20.944Z,62840.16
2022-07-25T02:09:23.920Z,62808.02
2022-07-25T02:10:26.898Z,62987.83
2022-07-25T02:11:29.760Z,62990.84
2022-07-25T02:12:32.543Z,62886.37
2022-07-25T02:13:35.221Z,62988.83
2022-07-25T02:14:40.546Z,62894.40
2022-07-25T02:15:43.516Z,62939.61
2022-07-25T02:16:49.141Z,62859.25
2022-07-25T02:17:52.033Z,62983.81
2022-07-25T02:18:55.213Z,63133.49
2022-07-25T02:19:58.196Z,63059.15
2022-07-25T02:21:01.062Z,63036.05
2022-07-25T02:22:04.245Z,63169.66
2022-07-25T02:23:07.540Z,63061.16
2022-07-25T02:24:10.647Z,63057.14
2022-07-25T02:25:13.692Z,63091.30
2022-07-25T02:26:16.461Z,63056.14
2022-07-25T02:27:19.443Z,62937.60
2022-07-25T02:28:22.109Z,62864.27
2022-07-25T02:29:24.986Z,62791.95
2022-07-25T02:30:30.672Z,62730.67
2022-07-25T02:31:33.396Z,62694.50
2022-07-25T02:32:36.065Z,62649.30
2022-07-25T02:33:41.712Z,62709.57
2022-07-25T02:34:44.786Z,62741.71
2022-07-25T02:35:47.759Z,62697.52
2022-07-25T02:36:50.640Z,62661.36
2022-07-25T02:37:53.916Z,62585.02
2022-07-25T02:38:57.214Z,62469.51
2022-07-25T02:40:00.191Z,62321.86
2022-07-25T02:41:03.157Z,62156.14
2022-07-25T02:42:06.029Z,61921.12
2022-07-25T02:43:09.110Z,61689.14
2022-07-25T02:44:12.084Z,61655.00
2022-07-25T02:45:14.799Z,61570.64
2022-07-25T02:46:17.733Z,61506.37
2022-07-25T02:47:23.475Z,61532.48
2022-07-25T02:48:26.442Z,61632.90
2022-07-25T02:49:29.330Z,61650.98
2022-07-25T02:50:37.839Z,61646.96
2022-07-25T02:51:40.713Z,61642.94
2022-07-25T02:52:43.892Z,61641.94
2022-07-25T02:53:57.290Z,61534.49
2022-07-25T02:54:51.300Z,61645.96
2022-07-25T02:55:54.270Z,61701.19
2022-07-25T02:56:58.877Z,61736.34
2022-07-25T02:58:01.858Z,61786.55
2022-07-25T02:59:04.822Z,61777.51
2022-07-25T03:00:08.007Z,61912.09
2022-07-25T03:01:11.083Z,62032.60
2022-07-25T03:02:14.070Z,62052.69
2022-07-25T03:03:16.735Z,62052.69
2022-07-25T03:04:19.445Z,61887.98
2022-07-25T03:05:22.591Z,61649.97
2022-07-25T03:06:25.258Z,61290.48
2022-07-25T03:07:28.439Z,60871.77
2022-07-25T03:08:31.111Z,60694.06
2022-07-25T03:09:33.985Z,60738.24
2022-07-25T03:10:39.831Z,60893.86
2022-07-25T03:11:42.699Z,60811.53
2022-07-25T03:12:45.801Z,60838.64
2022-07-25T03:13:48.770Z,60952.10
2022-07-25T03:14:51.942Z,61060.54
2022-07-25T03:15:54.811Z,61517.42
2022-07-25T03:17:00.425Z,61820.70
2022-07-25T03:18:03.443Z,61964.31
2022-07-25T03:19:06.094Z,61801.61
2022-07-25T03:20:09.195Z,61445.12
2022-07-25T03:21:12.156Z,61080.62
2022-07-25T03:22:15.233Z,60775.39
2022-07-25T03:23:17.799Z,60644.87
2022-07-25T03:24:20.579Z,60674.99
2022-07-25T03:25:23.552Z,60970.17
2022-07-25T03:26:26.221Z,61156.93
2022-07-25T03:27:31.860Z,61212.15
2022-07-25T03:28:34.631Z,61273.41
2022-07-25T03:29:37.412Z,61257.34
2022-07-25T03:30:40.194Z,61322.61
2022-07-25T03:31:43.000Z,61251.32
2022-07-25T03:32:48.385Z,61191.07
2022-07-25T03:33:51.361Z,61539.51
2022-07-25T03:34:54.337Z,61835.76
2022-07-25T03:35:57.228Z,62034.61
2022-07-25T03:37:00.108Z,62195.30
2022-07-25T03:38:02.968Z,62312.82
2022-07-25T03:39:08.404Z,62412.25
2022-07-25T03:40:11.372Z,62532.79
2022-07-25T03:41:14.249Z,62668.39
2022-07-25T03:42:17.031Z,62700.53
2022-07-25T03:43:19.788Z,62693.50
2022-07-25T03:44:22.574Z,62599.08
2022-07-25T03:45:28.184Z,62342.95
2022-07-25T03:46:31.061Z,62177.23
2022-07-25T03:47:39.579Z,62027.58
2022-07-25T03:48:42.351Z,61938.20
2022-07-25T03:49:45.233Z,61825.71
2022-07-25T03:50:47.998Z,61835.76
2022-07-25T03:51:51.489Z,61853.84
2022-07-25T03:52:54.673Z,61747.38
2022-07-25T03:53:57.458Z,61747.38
2022-07-25T03:55:00.421Z,61949.24
2022-07-25T03:56:03.608Z,62020.55
2022-07-25T03:57:06.579Z,61960.29
2022-07-25T03:58:09.768Z,61781.53
2022-07-25T03:59:12.860Z,61491.31
2022-07-25T04:00:16.030Z,61275.41
2022-07-25T04:01:18.967Z,61164.96
2022-07-25T04:02:22.157Z,60979.21
2022-07-25T04:03:25.362Z,60966.15
2022-07-25T04:04:28.146Z,60937.04
2022-07-25T04:05:30.913Z,60888.84
2022-07-25T04:06:37.059Z,60837.64
2022-07-25T04:07:40.037Z,61053.51
2022-07-25T04:08:43.114Z,61158.94
2022-07-25T04:09:46.306Z,61269.39
2022-07-25T04:10:49.394Z,61246.29
2022-07-25T04:11:52.358Z,61309.55
2022-07-25T04:12:55.332Z,61230.23
2022-07-25T04:13:58.308Z,61279.43
2022-07-25T04:15:01.281Z,61226.21
2022-07-25T04:16:04.438Z,61162.95
2022-07-25T04:17:08.348Z,61191.07
2022-07-25T04:18:13.183Z,61258.34
2022-07-25T04:19:17.196Z,61313.57
2022-07-25T04:20:19.875Z,61323.61
2022-07-25T04:21:22.725Z,61368.80
2022-07-25T04:22:25.509Z,61361.77
2022-07-25T04:23:28.281Z,61412.98
2022-07-25T04:24:31.049Z,61364.78
2022-07-25T04:25:33.830Z,61303.53
2022-07-25T04:26:36.689Z,61304.53
2022-07-25T04:27:39.571Z,61239.27
2022-07-25T04:28:45.420Z,61088.65
2022-07-25T04:29:48.182Z,61136.84
2022-07-25T04:30:50.954Z,61128.81
2022-07-25T04:31:54.023Z,61248.30
2022-07-25T04:32:56.714Z,61311.56
2022-07-25T04:33:59.503Z,61341.69
2022-07-25T04:35:02.271Z,61489.30
2022-07-25T04:36:05.127Z,61613.82
2022-07-25T04:37:10.967Z,61678.09
2022-07-25T04:38:14.049Z,61732.32
2022-07-25T04:39:16.716Z,61709.22
2022-07-25T04:40:19.493Z,61698.18
2022-07-25T04:41:22.363Z,61697.17
2022-07-25T04:42:25.147Z,61703.20
2022-07-25T04:43:30.884Z,61715.25
2022-07-25T04:44:33.674Z,61788.56
2022-07-25T04:45:39.706Z,61857.85
2022-07-25T04:46:42.686Z,61878.95
2022-07-25T04:47:45.656Z,61910.08
2022-07-25T04:48:48.746Z,61971.34
2022-07-25T04:49:51.710Z,61988.41
2022-07-25T04:50:54.790Z,61949.24
2022-07-25T04:51:57.868Z,61965.31
2022-07-25T04:53:00.740Z,62014.52
2022-07-25T04:54:03.944Z,62028.59
2022-07-25T04:55:07.232Z,62038.63
2022-07-25T04:56:10.397Z,62117.97
2022-07-25T04:57:13.383Z,62174.21
2022-07-25T04:58:16.260Z,62280.68
2022-07-25T04:59:22.084Z,62329.89
2022-07-25T05:00:24.872Z,62361.03
2022-07-25T05:01:27.897Z,62276.66
2022-07-25T05:02:30.711Z,62281.68
2022-07-25T05:03:33.587Z,62254.56
2022-07-25T05:04:44.908Z,62268.62
2022-07-25T05:05:44.359Z,62257.58
2022-07-25T05:06:47.247Z,62287.71
2022-07-25T05:07:50.525Z,62277.66
2022-07-25T05:08:53.496Z,62347.97
2022-07-25T05:09:56.365Z,62323.87
2022-07-25T05:10:59.443Z,62321.86
2022-07-25T05:12:05.301Z,62333.91
2022-07-25T05:13:08.159Z,62393.17
2022-07-25T05:14:11.142Z,62382.12
2022-07-25T05:15:14.660Z,62437.36
2022-07-25T05:16:17.471Z,62453.43
2022-07-25T05:17:20.483Z,62444.39
2022-07-25T05:18:23.575Z,62410.25
2022-07-25T05:19:26.647Z,62401.21
2022-07-25T05:20:29.430Z,62410.25
2022-07-25T05:21:32.182Z,62356.01
2022-07-25T05:22:35.175Z,62384.13
2022-07-25T05:23:40.900Z,62419.29
2022-07-25T05:24:43.976Z,62448.41
2022-07-25T05:25:47.586Z,62600.09
2022-07-25T05:26:50.455Z,62600.09
2022-07-25T05:27:53.535Z,62627.21
2022-07-25T05:28:56.809Z,62863.26
2022-07-25T05:30:00.107Z,62993.86
2022-07-25T05:31:03.187Z,63026.00
2022-07-25T05:32:06.152Z,63159.61
2022-07-25T05:33:08.921Z,63181.71
2022-07-25T05:34:12.211Z,63253.04
2022-07-25T05:35:15.080Z,63195.78
2022-07-25T05:36:17.757Z,63251.03
2022-07-25T05:37:21.042Z,63346.48
2022-07-25T05:38:24.215Z,63412.78
2022-07-25T05:39:27.308Z,63412.78
2022-07-25T05:40:33.045Z,63421.82
2022-07-25T05:41:35.809Z,63420.82
2022-07-25T05:42:41.762Z,63438.90
2022-07-25T05:43:44.747Z,63457.99
2022-07-25T05:44:48.224Z,63430.87
2022-07-25T05:45:51.342Z,63386.66
2022-07-25T05:46:54.243Z,63408.76
2022-07-25T05:47:57.690Z,63436.89
2022-07-25T05:49:00.630Z,63424.84
2022-07-25T05:50:03.525Z,63395.70
2022-07-25T05:51:06.811Z,63435.89
2022-07-25T05:52:13.096Z,63439.91
2022-07-25T05:53:17.259Z,63461.00
2022-07-25T05:54:20.139Z,63499.18
2022-07-25T05:55:23.010Z,63520.28
2022-07-25T05:56:25.801Z,63497.18
2022-07-25T05:57:28.579Z,63493.16
2022-07-25T05:58:31.644Z,63445.93
2022-07-25T05:59:34.934Z,63423.83
2022-07-25T06:00:37.998Z,63447.95
2022-07-25T06:01:41.083Z,63410.77
2022-07-25T06:02:44.199Z,63344.46
2022-07-25T06:03:47.237Z,63363.55
2022-07-25T06:04:50.112Z,63290.21
2022-07-25T06:05:53.296Z,63274.14
2022-07-25T06:06:56.482Z,63196.79
2022-07-25T06:07:59.961Z,63294.23
2022-07-25T06:09:02.937Z,63297.25
2022-07-25T06:10:07.455Z,63252.04
2022-07-25T06:11:10.328Z,63237.97
2022-07-25T06:12:19.350Z,63284.18
2022-07-25T06:13:22.525Z,63297.25
2022-07-25T06:14:26.630Z,63260.07
2022-07-25T06:15:30.333Z,63317.34
2022-07-25T06:16:33.527Z,63281.17
2022-07-25T06:17:36.381Z,63288.20
2022-07-25T06:18:39.676Z,63265.10
2022-07-25T06:19:42.846Z,63260.07
2022-07-25T06:20:46.029Z,63298.25
2022-07-25T06:21:49.006Z,63249.02
2022-07-25T06:22:52.084Z,63115.41
2022-07-25T06:23:55.063Z,63059.15
2022-07-25T06:24:58.143Z,62926.55
2022-07-25T06:26:01.431Z,62783.91
2022-07-25T06:27:04.610Z,62695.51
2022-07-25T06:28:07.689Z,62624.19
2022-07-25T06:29:12.413Z,62536.80
2022-07-25T06:30:20.031Z,62479.55
2022-07-25T06:31:20.274Z,62380.11
2022-07-25T06:32:23.083Z,62236.48
2022-07-25T06:33:26.155Z,62055.70
2022-07-25T06:34:29.153Z,61884.97
2022-07-25T06:35:31.926Z,61763.45
2022-07-25T06:36:34.676Z,61694.16
2022-07-25T06:37:37.868Z,61606.79
2022-07-25T06:38:41.148Z,61537.50
2022-07-25T06:39:46.006Z,61508.38
2022-07-25T06:40:48.841Z,61454.15
2022-07-25T06:41:51.614Z,61462.19
2022-07-25T06:42:54.806Z,61443.11
2022-07-25T06:43:57.986Z,61408.96
2022-07-25T06:45:01.264Z,61403.95
2022-07-25T06:46:04.236Z,61343.70
2022-07-25T06:47:07.414Z,61354.74
2022-07-25T06:48:10.502Z,61326.62
2022-07-25T06:49:13.689Z,61294.49
2022-07-25T06:50:16.659Z,61355.75
2022-07-25T06:51:19.537Z,61341.69
2022-07-25T06:52:22.311Z,61258.34
2022-07-25T06:53:25.182Z,61232.24
2022-07-25T06:54:27.954Z,61171.99
2022-07-25T06:55:30.726Z,61114.76
2022-07-25T06:56:39.337Z,61071.58
2022-07-25T06:57:42.209Z,61031.42
2022-07-25T06:58:45.489Z,60979.21
2022-07-25T06:59:48.467Z,60972.18
2022-07-25T07:00:51.738Z,60904.91
2022-07-25T07:01:54.831Z,60869.77
2022-07-25T07:02:58.262Z,60820.57
2022-07-25T07:04:01.407Z,60795.46
2022-07-25T07:05:04.577Z,60737.23
2022-07-25T07:06:07.557Z,60685.03
2022-07-25T07:07:10.448Z,60630.81
2022-07-25T07:08:16.488Z,60601.70
2022-07-25T07:09:19.360Z,60466.17
2022-07-25T07:10:22.127Z,60466.17
2022-07-25T07:11:25.108Z,60384.85
2022-07-25T07:12:27.987Z,60296.50
2022-07-25T07:13:30.851Z,60199.13
2022-07-25T07:14:33.730Z,60078.67
2022-07-25T07:15:36.412Z,59952.19
2022-07-25T07:16:40.751Z,59727.34
2022-07-25T07:17:43.585Z,59509.54
2022-07-25T07:18:49.615Z,59324.86
2022-07-25T07:19:53.323Z,59169.30
2022-07-25T07:20:56.203Z,59004.71
2022-07-25T07:21:59.289Z,58890.31
2022-07-25T07:23:02.363Z,58741.79
2022-07-25T07:24:05.231Z,58573.21
2022-07-25T07:25:09.649Z,58497.95
2022-07-25T07:26:16.312Z,58374.53
2022-07-25T07:27:19.304Z,58273.19
2022-07-25T07:28:22.261Z,58187.90
2022-07-25T07:29:25.137Z,58088.57
2022-07-25T07:30:52.151Z,58008.31
2022-07-25T07:31:44.533Z,57801.63
2022-07-25T07:32:47.377Z,57548.82
2022-07-25T07:33:50.150Z,57388.31
2022-07-25T07:34:53.346Z,57205.74
2022-07-25T07:35:56.103Z,56405.35
2022-07-25T07:36:58.878Z,56317.09
2022-07-25T07:38:01.649Z,56285.00
2022-07-25T07:39:04.612Z,56240.87
2022-07-25T07:40:07.709Z,56229.84
2022-07-25T07:41:12.017Z,56209.79
2022-07-25T07:42:14.781Z,56192.73
2022-07-25T07:43:17.661Z,56190.73
2022-07-25T07:44:20.442Z,56187.72
2022-07-25T07:45:23.318Z,56175.69
2022-07-25T07:46:26.035Z,56119.53
2022-07-25T07:47:28.958Z,56090.45
2022-07-25T07:48:31.952Z,56053.34
2022-07-25T07:49:37.120Z,56042.31
2022-07-25T07:50:39.011Z,55995.18
2022-07-25T07:51:41.988Z,56023.26
2022-07-25T07:52:45.065Z,55978.13
2022-07-25T07:53:48.041Z,55993.18
2022-07-25T07:54:51.019Z,55940.03
2022-07-25T07:55:54.209Z,55937.02
2022-07-25T07:56:57.187Z,55894.90
2022-07-25T07:57:59.847Z,55901.92
2022-07-25T07:59:03.387Z,55890.89
2022-07-25T08:00:06.635Z,55860.81
2022-07-25T08:01:09.403Z,55862.81
2022-07-25T08:02:12.471Z,55870.84
2022-07-25T08:03:15.415Z,55826.71
2022-07-25T08:04:18.222Z,55800.64
2022-07-25T08:05:21.300Z,55806.66
2022-07-25T08:06:23.972Z,55823.71
2022-07-25T08:07:27.052Z,55783.59
2022-07-25T08:08:31.505Z,55756.52
2022-07-25T08:09:34.030Z,55781.59
2022-07-25T08:10:36.699Z,55724.43
2022-07-25T08:11:39.472Z,55742.48
2022-07-25T08:12:42.139Z,55706.39
2022-07-25T08:13:45.114Z,55678.31
2022-07-25T08:14:48.097Z,55713.40
2022-07-25T08:15:51.191Z,55709.39
2022-07-25T08:16:56.921Z,55700.37
2022-07-25T08:17:59.892Z,55653.24
2022-07-25T08:19:03.282Z,55660.26
2022-07-25T08:20:27.919Z,55642.21
2022-07-25T08:21:11.187Z,55654.24
2022-07-25T08:22:14.369Z,55633.19
2022-07-25T08:23:19.899Z,55600.10
2022-07-25T08:24:22.569Z,55613.13
2022-07-25T08:25:26.384Z,55620.15
2022-07-25T08:26:29.034Z,55625.16
2022-07-25T08:27:32.007Z,55600.10
2022-07-25T08:28:34.884Z,55633.19
2022-07-25T08:29:40.322Z,55630.18
2022-07-25T08:30:43.403Z,55594.08
2022-07-25T08:31:46.483Z,55570.02
2022-07-25T08:32:49.354Z,55632.18
2022-07-25T08:33:52.231Z,55581.05
2022-07-25T08:34:55.204Z,55580.04
2022-07-25T08:35:58.184Z,55596.09
2022-07-25T08:37:01.260Z,55510.86
2022-07-25T08:38:04.340Z,55567.01
2022-07-25T08:39:07.215Z,55550.96
2022-07-25T08:40:10.190Z,55553.97
2022-07-25T08:41:13.474Z,55505.84
2022-07-25T08:42:16.465Z,55493.81
2022-07-25T08:43:22.508Z,55511.86
2022-07-25T08:44:25.273Z,55521.89
2022-07-25T08:45:28.353Z,55461.73
2022-07-25T08:46:31.055Z,55457.71
2022-07-25T08:47:33.691Z,55454.71
2022-07-25T08:48:36.421Z,55448.70
2022-07-25T08:49:39.143Z,55423.62
2022-07-25T08:50:41.909Z,55447.69
2022-07-25T08:51:44.782Z,55437.66
2022-07-25T08:52:47.661Z,55418.61
2022-07-25T08:53:56.469Z,55387.53
2022-07-25T08:55:00.265Z,55359.46
2022-07-25T08:56:08.133Z,55386.53
2022-07-25T08:57:07.553Z,55389.54
2022-07-25T08:58:10.324Z,55377.50
2022-07-25T08:59:13.195Z,55363.47
2022-07-25T09:00:15.973Z,55360.46
2022-07-25T09:01:18.799Z,55409.59
2022-07-25T09:02:21.723Z,55323.36
2022-07-25T09:03:24.869Z,55326.37
2022-07-25T09:04:27.574Z,55314.34
2022-07-25T09:05:30.549Z,55322.36
2022-07-25T09:06:33.438Z,55294.29
2022-07-25T09:07:36.300Z,55309.32
2022-07-25T09:08:39.075Z,55321.36
2022-07-25T09:09:44.301Z,55310.33
2022-07-25T09:10:47.191Z,55317.35
2022-07-25T09:11:50.082Z,55327.38
2022-07-25T09:12:53.024Z,55301.30
2022-07-25T09:13:56.109Z,55267.21
2022-07-25T09:15:04.408Z,55288.27
2022-07-25T09:16:08.949Z,55279.25
2022-07-25T09:17:22.628Z,55298.30
2022-07-25T09:18:17.233Z,55285.26
2022-07-25T09:19:20.107Z,55305.32
2022-07-25T09:20:22.880Z,55261.20
2022-07-25T09:21:25.857Z,55292.28
2022-07-25T09:22:28.536Z,55277.24
2022-07-25T09:23:31.393Z,55283.26
2022-07-25T09:24:34.171Z,55283.26
2022-07-25T09:25:36.846Z,55299.30
2022-07-25T09:26:39.619Z,55291.28
2022-07-25T09:27:42.921Z,55321.36
2022-07-25T09:28:45.774Z,55279.25
2022-07-25T09:29:48.853Z,55309.32
2022-07-25T09:30:51.773Z,55331.38
2022-07-25T09:31:57.158Z,55328.37
2022-07-25T09:33:00.134Z,55333.39
2022-07-25T09:34:03.375Z,55323.36
2022-07-25T09:35:06.598Z,55378.51
2022-07-25T09:36:09.480Z,55359.46
2022-07-25T09:37:12.561Z,55361.46
2022-07-25T09:38:15.428Z,55363.47
2022-07-25T09:39:18.411Z,55384.52
2022-07-25T09:40:21.282Z,55419.62
2022-07-25T09:41:24.257Z,55386.53
2022-07-25T09:42:26.944Z,55371.49
2022-07-25T09:43:29.804Z,55413.60
2022-07-25T09:44:32.675Z,55419.62
2022-07-25T09:45:38.222Z,55430.64
2022-07-25T09:46:41.226Z,55429.64
2022-07-25T09:47:44.585Z,55479.78
2022-07-25T09:48:47.542Z,55451.70
2022-07-25T09:49:50.533Z,55471.75
2022-07-25T09:50:53.515Z,55465.74
2022-07-25T09:51:56.381Z,55479.78
2022-07-25T09:52:59.152Z,55512.86
2022-07-25T09:54:02.246Z,55495.82
2022-07-25T09:55:07.667Z,55499.83
2022-07-25T09:56:11.056Z,55499.83
2022-07-25T09:57:14.031Z,55518.88
2022-07-25T09:58:20.079Z,55479.78
2022-07-25T09:59:22.957Z,55474.76
2022-07-25T10:00:25.627Z,55525.90
2022-07-25T10:01:28.753Z,55487.80
2022-07-25T10:02:31.528Z,55491.81
2022-07-25T10:03:34.257Z,55511.86
2022-07-25T10:04:39.996Z,55503.84
2022-07-25T10:05:42.768Z,55529.91
2022-07-25T10:06:45.637Z,55549.96
2022-07-25T10:07:54.558Z,55542.95
2022-07-25T10:08:57.532Z,55560.99
2022-07-25T10:10:00.408Z,55565.00
2022-07-25T10:11:03.484Z,55572.02
2022-07-25T10:12:06.469Z,55588.07
2022-07-25T10:13:10.709Z,55587.06
2022-07-25T10:14:14.160Z,55621.15
2022-07-25T10:15:17.135Z,55632.18
2022-07-25T10:16:20.095Z,55666.28
2022-07-25T10:17:23.082Z,55694.35
2022-07-25T10:18:25.762Z,55656.25
2022-07-25T10:19:28.637Z,55661.26
2022-07-25T10:20:31.408Z,55695.36
2022-07-25T10:21:46.463Z,55708.39
2022-07-25T10:22:57.854Z,55682.32
2022-07-25T10:23:53.959Z,55752.51
2022-07-25T10:24:56.844Z,55720.42
2022-07-25T10:25:59.614Z,55740.48
2022-07-25T10:27:02.268Z,55758.53
2022-07-25T10:28:05.045Z,55780.59
2022-07-25T10:29:07.715Z,55759.53
2022-07-25T10:30:10.490Z,55727.44
2022-07-25T10:31:13.425Z,55758.53
2022-07-25T10:32:16.243Z,55737.47
2022-07-25T10:33:19.017Z,55810.67
2022-07-25T10:34:21.914Z,55795.63
2022-07-25T10:35:24.862Z,55768.55
2022-07-25T10:36:27.634Z,55758.53
2022-07-25T10:37:30.613Z,55842.76
2022-07-25T10:38:33.282Z,55787.61
2022-07-25T10:39:36.058Z,55808.66
2022-07-25T10:40:38.724Z,55808.66
2022-07-25T10:41:41.388Z,55815.68
2022-07-25T10:42:44.366Z,55815.68
2022-07-25T10:43:48.919Z,55825.71
2022-07-25T10:44:51.753Z,55816.69
2022-07-25T10:45:54.778Z,55843.76
2022-07-25T10:46:57.838Z,55836.74
2022-07-25T10:48:00.903Z,55821.70
2022-07-25T10:49:04.256Z,55861.81
2022-07-25T10:50:22.046Z,55860.81
2022-07-25T10:51:23.952Z,55852.79
2022-07-25T10:52:26.726Z,55849.78
2022-07-25T10:53:29.603Z,55888.89
2022-07-25T10:54:32.270Z,55844.76
2022-07-25T10:55:35.045Z,55851.79
2022-07-25T10:56:37.710Z,55850.78
2022-07-25T10:57:49.928Z,55845.77
2022-07-25T10:58:45.016Z,55822.70
2022-07-25T10:59:47.872Z,55798.64
2022-07-25T11:00:50.839Z,55793.62
2022-07-25T11:01:53.759Z,55822.70
2022-07-25T11:02:56.790Z,55790.62
2022-07-25T11:03:59.778Z,55778.58
2022-07-25T11:05:02.757Z,55770.56
2022-07-25T11:06:05.651Z,55794.62
2022-07-25T11:07:08.511Z,55752.51
2022-07-25T11:08:21.616Z,55778.58
2022-07-25T11:09:18.480Z,55748.50
2022-07-25T11:10:20.317Z,55755.52
2022-07-25T11:11:23.219Z,55766.55
2022-07-25T11:12:25.957Z,55754.52
2022-07-25T11:13:28.726Z,55750.50
2022-07-25T11:14:31.507Z,55741.48
2022-07-25T11:15:37.153Z,55721.43
2022-07-25T11:16:39.946Z,55720.42
2022-07-25T11:17:42.782Z,55705.38
2022-07-25T11:18:48.727Z,55742.48
2022-07-25T11:19:51.809Z,55744.49
2022-07-25T11:20:54.689Z,55703.38
2022-07-25T11:21:57.668Z,55694.35
2022-07-25T11:23:00.532Z,55704.38
2022-07-25T11:24:03.410Z,55669.29
2022-07-25T11:25:06.284Z,55687.34
2022-07-25T11:26:09.265Z,55665.27
2022-07-25T11:27:12.801Z,55696.36
2022-07-25T11:28:15.829Z,55683.32
2022-07-25T11:29:18.731Z,55659.26
2022-07-25T11:30:21.677Z,55638.20
2022-07-25T11:31:24.721Z,55653.24
2022-07-25T11:32:27.428Z,55624.16
2022-07-25T11:33:30.818Z,55608.12
2022-07-25T11:34:33.775Z,55573.02
2022-07-25T11:35:36.563Z,55618.14
2022-07-25T11:36:39.335Z,55570.02
2022-07-25T11:37:42.110Z,55585.06
2022-07-25T11:38:45.090Z,55598.09
2022-07-25T11:39:50.327Z,55578.04
2022-07-25T11:40:53.291Z,55572.02
2022-07-25T11:41:56.165Z,55533.92
2022-07-25T11:42:59.040Z,55559.99
2022-07-25T11:44:01.917Z,55577.04
2022-07-25T11:45:10.730Z,55580.04
2022-07-25T11:46:13.761Z,55551.97
2022-07-25T11:47:16.689Z,55558.99
2022-07-25T11:48:19.567Z,55583.05
2022-07-25T11:49:22.537Z,55584.05
2022-07-25T11:50:25.223Z,55544.95
2022-07-25T11:51:27.876Z,55574.03
2022-07-25T11:52:30.653Z,55586.06
2022-07-25T11:53:33.313Z,55576.03
2022-07-25T11:54:36.088Z,55573.02
2022-07-25T11:55:38.863Z,55557.98
2022-07-25T11:56:43.224Z,55565.00
2022-07-25T11:57:45.942Z,55613.13
2022-07-25T11:58:51.181Z,55590.07
2022-07-25T11:59:53.947Z,55540.94
2022-07-25T12:00:56.610Z,55555.98
2022-07-25T12:01:59.333Z,55575.03
2022-07-25T12:03:02.232Z,55572.02
2022-07-25T12:04:07.698Z,55568.01
2022-07-25T12:05:10.574Z,55591.07
2022-07-25T12:06:13.240Z,55571.02
2022-07-25T12:07:15.913Z,55576.03
2022-07-25T12:08:18.692Z,55575.03
2022-07-25T12:09:24.113Z,55578.04
2022-07-25T12:10:26.785Z,55564.00
2022-07-25T12:11:29.558Z,55542.95
2022-07-25T12:12:34.990Z,55532.92
2022-07-25T12:13:37.663Z,55574.03
2022-07-25T12:14:40.434Z,55575.03
2022-07-25T12:15:43.217Z,55586.06
2022-07-25T12:16:46.181Z,55544.95
2022-07-25T12:17:49.057Z,55585.06
2022-07-25T12:18:52.037Z,55588.07
2022-07-25T12:19:54.913Z,55556.98
2022-07-25T12:20:57.889Z,55535.93
2022-07-25T12:22:00.866Z,55565.00
2022-07-25T12:23:03.770Z,55562.00
2022-07-25T12:24:09.169Z,55529.91
2022-07-25T12:25:12.149Z,55566.01
2022-07-25T12:26:15.026Z,55584.05